createdAt,value
2017-08-18T00:01:11.641Z,6.33
2017-08-18T00:03:39.892Z,6.03
2017-08-18T00:06:08.259Z,6.03
2017-08-18T00:08:36.506Z,7.40
2017-08-18T00:11:04.753Z,7.10
2017-08-18T00:13:33.039Z,6.60
2017-08-18T00:16:01.286Z,7.30
2017-08-18T00:18:29.526Z,5.77
2017-08-18T00:20:57.797Z,6.93
2017-08-18T00:23:26.269Z,6.50
2017-08-18T00:25:54.534Z,8.03
2017-08-18T00:28:23.033Z,7.00
2017-08-18T00:30:51.309Z,6.40
2017-08-18T00:33:19.668Z,6.80
2017-08-18T00:35:48.003Z,5.90
2017-08-18T00:38:16.244Z,6.87
2017-08-18T00:40:44.505Z,7.47
2017-08-18T00:43:12.888Z,6.67
2017-08-18T00:45:41.141Z,7.10
2017-08-18T00:48:09.610Z,6.57
2017-08-18T00:50:37.884Z,7.30
2017-08-18T00:53:06.120Z,8.10
2017-08-18T00:55:34.376Z,8.60
2017-08-18T00:58:02.650Z,6.43
2017-08-18T01:00:30.900Z,6.70
2017-08-18T01:02:59.124Z,8.80
2017-08-18T01:05:27.615Z,9.40
2017-08-18T01:07:55.864Z,9.50
2017-08-18T01:10:24.130Z,9.80
2017-08-18T01:12:52.764Z,8.17
2017-08-18T01:15:21.062Z,8.10
2017-08-18T01:17:49.302Z,9.93
2017-08-18T01:20:17.575Z,7.80
2017-08-18T01:22:45.834Z,6.73
2017-08-18T01:25:14.057Z,7.20
2017-08-18T01:27:42.341Z,5.57
2017-08-18T01:30:10.577Z,7.60
2017-08-18T01:32:38.820Z,6.60
2017-08-18T01:35:07.192Z,9.30
2017-08-18T01:37:35.439Z,7.77
2017-08-18T01:40:03.789Z,8.07
2017-08-18T01:42:32.380Z,9.23
2017-08-18T01:45:00.659Z,7.50
2017-08-18T01:47:28.899Z,9.13
2017-08-18T01:49:57.318Z,9.60
2017-08-18T01:52:25.564Z,7.17
2017-08-18T01:54:53.803Z,9.57
2017-08-18T01:57:22.328Z,8.10
2017-08-18T01:59:50.576Z,7.50
2017-08-18T02:02:18.833Z,9.17
2017-08-18T02:04:47.284Z,9.00
2017-08-18T02:07:16.030Z,10.73
2017-08-18T02:09:44.284Z,9.40
2017-08-18T02:12:12.606Z,11.67
2017-08-18T02:14:40.848Z,8.30
2017-08-18T02:17:09.428Z,8.10
2017-08-18T02:19:38.377Z,9.00
2017-08-18T02:22:06.620Z,10.40
2017-08-18T02:24:34.931Z,8.30
2017-08-18T02:27:03.300Z,9.87
2017-08-18T02:29:31.537Z,7.87
2017-08-18T02:31:59.808Z,10.90
2017-08-18T02:34:28.237Z,10.43
2017-08-18T02:36:56.480Z,9.03
2017-08-18T02:39:24.728Z,9.60
2017-08-18T02:41:53.214Z,10.33
2017-08-18T02:44:21.457Z,10.13
2017-08-18T02:46:49.706Z,10.57
2017-08-18T02:49:18.109Z,9.13
2017-08-18T02:51:46.376Z,10.83
2017-08-18T02:54:14.703Z,11.50
2017-08-18T02:56:43.160Z,8.40
2017-08-18T02:59:11.428Z,8.67
2017-08-18T03:01:39.689Z,9.60
2017-08-18T03:04:07.963Z,10.03
2017-08-18T03:06:36.212Z,11.13
2017-08-18T03:09:04.514Z,11.77
2017-08-18T03:11:32.808Z,10.40
2017-08-18T03:14:01.054Z,9.43
2017-08-18T03:16:29.302Z,8.40
2017-08-18T03:18:57.738Z,7.27
2017-08-18T03:21:25.984Z,10.87
2017-08-18T03:23:54.242Z,10.40
2017-08-18T03:26:22.611Z,12.43
2017-08-18T03:28:50.847Z,10.90
2017-08-18T03:31:19.092Z,12.50
2017-08-18T03:33:47.535Z,8.10
2017-08-18T03:36:15.788Z,9.57
2017-08-18T03:38:44.043Z,12.23
2017-08-18T03:41:12.315Z,8.43
2017-08-18T03:43:40.562Z,9.90
2017-08-18T03:46:08.807Z,9.40
2017-08-18T03:48:37.511Z,12.87
2017-08-18T03:51:05.823Z,12.97
2017-08-18T03:53:34.060Z,11.50
2017-08-18T03:56:02.510Z,14.10
2017-08-18T03:58:30.773Z,13.40
2017-08-18T04:00:59.019Z,14.07
2017-08-18T04:03:27.697Z,12.13
2017-08-18T04:05:55.936Z,10.57
2017-08-18T04:08:24.184Z,12.53
2017-08-18T04:10:52.768Z,11.03
2017-08-18T04:13:21.011Z,12.20
2017-08-18T04:15:49.264Z,11.00
2017-08-18T04:18:17.700Z,12.63
2017-08-18T04:20:46.047Z,12.43
2017-08-18T04:23:14.312Z,12.53
2017-08-18T04:25:42.599Z,12.27
2017-08-18T04:28:11.094Z,12.90
2017-08-18T04:30:39.645Z,10.80
2017-08-18T04:33:07.936Z,14.67
2017-08-18T04:35:36.187Z,14.70
2017-08-18T04:38:04.427Z,11.10
2017-08-18T04:40:33.070Z,11.90
2017-08-18T04:43:01.342Z,10.83
2017-08-18T04:45:29.584Z,11.37
2017-08-18T04:47:58.044Z,12.80
2017-08-18T04:50:26.513Z,11.27
2017-08-18T04:52:54.756Z,13.00
2017-08-18T04:55:23.204Z,13.10
2017-08-18T04:57:51.456Z,11.50
2017-08-18T05:00:19.705Z,12.60
2017-08-18T05:02:47.991Z,9.03
2017-08-18T05:05:16.241Z,13.17
2017-08-18T05:07:44.547Z,13.00
2017-08-18T05:10:12.816Z,13.23
2017-08-18T05:12:41.203Z,11.40
2017-08-18T05:15:09.520Z,9.67
2017-08-18T05:17:37.912Z,11.00
2017-08-18T05:20:06.183Z,12.83
2017-08-18T05:22:34.439Z,14.20
2017-08-18T05:25:02.724Z,13.93
2017-08-18T05:27:32.084Z,13.47
2017-08-18T05:30:00.324Z,9.47
2017-08-18T05:32:28.602Z,14.53
2017-08-18T05:34:56.904Z,16.60
2017-08-18T05:37:25.147Z,8.77
2017-08-18T05:39:53.429Z,14.67
2017-08-18T05:42:21.683Z,12.67
2017-08-18T05:44:50.152Z,15.90
2017-08-18T05:47:18.874Z,15.80
2017-08-18T05:49:47.183Z,10.20
2017-08-18T05:52:15.472Z,12.37
2017-08-18T05:54:43.843Z,11.90
2017-08-18T05:57:12.111Z,9.40
2017-08-18T05:59:40.371Z,11.80
2017-08-18T06:02:08.669Z,13.40
2017-08-18T06:04:36.936Z,11.30
2017-08-18T06:07:05.181Z,11.67
2017-08-18T06:09:33.637Z,13.23
2017-08-18T06:12:01.967Z,10.87
2017-08-18T06:14:30.457Z,11.87
2017-08-18T06:16:58.767Z,13.67
2017-08-18T06:19:27.109Z,14.17
2017-08-18T06:21:55.409Z,11.67
2017-08-18T06:24:24.134Z,12.77
2017-08-18T06:26:52.649Z,11.37
2017-08-18T06:29:20.952Z,11.80
2017-08-18T06:31:49.967Z,11.30
2017-08-18T06:34:18.244Z,9.50
2017-08-18T06:36:46.519Z,10.97
2017-08-18T06:39:14.976Z,9.97
2017-08-18T06:41:43.227Z,9.20
2017-08-18T06:44:11.496Z,8.50
2017-08-18T06:46:39.786Z,8.60
2017-08-18T06:49:08.057Z,9.93
2017-08-18T06:51:36.329Z,9.17
2017-08-18T06:54:04.610Z,10.40
2017-08-18T06:56:32.876Z,10.03
2017-08-18T06:59:01.136Z,9.80
2017-08-18T07:01:29.426Z,9.23
2017-08-18T07:03:57.735Z,8.90
2017-08-18T07:06:26.000Z,9.63
2017-08-18T07:08:54.300Z,9.80
2017-08-18T07:11:22.575Z,8.20
2017-08-18T07:13:51.338Z,7.80
2017-08-18T07:16:19.853Z,8.15
2017-08-18T07:18:48.130Z,8.50
2017-08-18T07:21:16.473Z,8.17
2017-08-18T07:23:44.786Z,10.60
2017-08-18T07:26:13.065Z,10.57
2017-08-18T07:28:41.359Z,10.77
2017-08-18T07:31:10.084Z,12.90
2017-08-18T07:33:38.368Z,11.70
2017-08-18T07:36:06.827Z,10.90
2017-08-18T07:38:35.315Z,10.93
2017-08-18T07:41:03.559Z,11.10
2017-08-18T07:43:31.820Z,11.87
2017-08-18T07:46:00.115Z,13.63
2017-08-18T07:48:28.406Z,14.30
2017-08-18T07:50:56.654Z,17.80
2017-08-18T07:53:25.066Z,16.40
2017-08-18T07:55:53.331Z,15.80
2017-08-18T07:58:21.593Z,17.50
2017-08-18T08:00:50.087Z,17.07
2017-08-18T08:03:19.824Z,17.30
2017-08-18T08:05:48.379Z,16.33
2017-08-18T08:08:16.660Z,15.57
2017-08-18T08:10:45.015Z,13.20
2017-08-18T08:13:13.328Z,13.73
2017-08-18T08:15:41.635Z,9.93
2017-08-18T08:18:09.872Z,9.47
2017-08-18T08:20:38.124Z,7.90
2017-08-18T08:23:06.559Z,8.40
2017-08-18T08:25:34.821Z,8.47
2017-08-18T08:28:03.067Z,9.10
2017-08-18T08:30:31.509Z,8.40
2017-08-18T08:32:59.787Z,8.10
2017-08-18T08:35:28.042Z,8.53
2017-08-18T08:37:56.357Z,9.83
2017-08-18T08:40:24.598Z,8.30
2017-08-18T08:42:52.838Z,8.70
2017-08-18T08:45:21.266Z,8.67
2017-08-18T08:47:49.782Z,7.80
2017-08-18T08:50:18.035Z,7.43
2017-08-18T08:52:46.461Z,7.53
2017-08-18T08:55:14.746Z,6.37
2017-08-18T08:57:43.111Z,6.20
2017-08-18T09:00:11.391Z,5.70
2017-08-18T09:02:39.665Z,5.07
2017-08-18T09:05:07.971Z,5.00
2017-08-18T09:07:36.347Z,4.40
2017-08-18T09:10:04.804Z,4.80
2017-08-18T09:12:33.465Z,4.20
2017-08-18T09:15:01.845Z,4.17
2017-08-18T09:17:30.093Z,3.70
2017-08-18T09:19:58.339Z,4.03
2017-08-18T09:22:26.868Z,3.97
2017-08-18T09:24:55.130Z,3.53
2017-08-18T09:27:23.432Z,3.67
2017-08-18T09:29:52.409Z,3.50
2017-08-18T09:32:20.663Z,3.10
2017-08-18T09:34:48.962Z,3.00
2017-08-18T09:37:17.455Z,2.70
2017-08-18T09:39:45.701Z,2.80
2017-08-18T09:42:14.199Z,2.60
2017-08-18T09:44:42.518Z,3.10
2017-08-18T09:47:10.996Z,3.07
2017-08-18T09:49:50.977Z,2.90
2017-08-18T09:55:31.264Z,2.90
2017-08-18T09:58:11.368Z,2.90
2017-08-18T10:00:39.675Z,2.43
2017-08-18T10:03:08.170Z,3.03
2017-08-18T10:05:36.424Z,3.10
2017-08-18T10:08:04.857Z,2.60
2017-08-18T10:10:33.228Z,3.10
2017-08-18T10:13:01.721Z,2.80
2017-08-18T10:15:30.005Z,3.07
2017-08-18T10:17:58.264Z,2.73
2017-08-18T10:20:26.523Z,2.50
2017-08-18T10:22:54.827Z,2.80
2017-08-18T10:25:23.083Z,3.13
2017-08-18T10:27:51.337Z,3.40
2017-08-18T10:30:19.605Z,2.30
2017-08-18T10:32:47.845Z,3.40
2017-08-18T10:35:16.268Z,3.23
2017-08-18T10:37:44.816Z,3.43
2017-08-18T10:40:13.078Z,3.07
2017-08-18T10:42:41.324Z,2.73
2017-08-18T10:45:09.660Z,2.80
2017-08-18T10:47:37.917Z,3.10
2017-08-18T10:50:06.409Z,3.47
2017-08-18T10:52:34.775Z,3.17
2017-08-18T10:55:03.069Z,2.93
2017-08-18T10:57:31.305Z,3.27
2017-08-18T10:59:59.719Z,3.33
2017-08-18T11:02:27.963Z,3.63
2017-08-18T11:04:56.204Z,3.13
2017-08-18T11:07:24.524Z,2.90
2017-08-18T11:09:52.769Z,3.53
2017-08-18T11:12:21.013Z,3.33
2017-08-18T11:14:49.432Z,3.20
2017-08-18T11:17:17.679Z,3.30
2017-08-18T11:19:45.925Z,3.67
2017-08-18T11:22:14.454Z,3.20
2017-08-18T11:24:42.958Z,3.00
2017-08-18T11:27:11.357Z,3.17
2017-08-18T11:29:39.769Z,2.87
2017-08-18T11:32:08.019Z,2.77
2017-08-18T11:34:36.268Z,2.80
2017-08-18T11:37:04.566Z,3.10
2017-08-18T11:39:33.044Z,2.87
2017-08-18T11:42:01.295Z,3.00
2017-08-18T11:44:29.788Z,2.93
2017-08-18T11:46:58.062Z,2.90
2017-08-18T11:49:26.747Z,3.10
2017-08-18T11:51:55.235Z,2.90
2017-08-18T11:54:23.493Z,3.10
2017-08-18T11:56:51.749Z,2.80
2017-08-18T11:59:20.525Z,2.70
2017-08-18T12:01:48.767Z,2.97
2017-08-18T12:04:17.046Z,3.00
2017-08-18T12:06:46.220Z,2.70
2017-08-18T12:09:14.503Z,3.27
2017-08-18T12:11:42.810Z,2.87
2017-08-18T12:14:11.059Z,3.30
2017-08-18T12:16:39.528Z,3.00
2017-08-18T12:19:08.083Z,3.40
2017-08-18T12:21:36.319Z,3.23
2017-08-18T12:24:04.773Z,3.23
2017-08-18T12:26:33.031Z,3.00
2017-08-18T12:29:01.284Z,3.83
2017-08-18T12:31:29.565Z,3.50
2017-08-18T12:33:57.808Z,3.00
2017-08-18T12:36:26.084Z,3.13
2017-08-18T12:38:54.332Z,3.20
2017-08-18T12:41:22.841Z,3.47
2017-08-18T12:43:51.120Z,3.27
2017-08-18T12:46:19.374Z,3.10
2017-08-18T12:48:47.654Z,2.90
2017-08-18T12:51:16.092Z,3.10
2017-08-18T12:53:44.333Z,3.80
2017-08-18T12:56:12.585Z,3.90
2017-08-18T12:58:41.048Z,3.27
2017-08-18T13:01:09.300Z,3.23
2017-08-18T13:03:37.576Z,3.50
2017-08-18T13:06:05.829Z,3.60
2017-08-18T13:08:34.084Z,3.53
2017-08-18T13:11:02.428Z,3.90
2017-08-18T13:13:39.406Z,4.00
2017-08-18T13:16:08.798Z,4.20
2017-08-18T13:18:37.081Z,4.03
2017-08-18T13:21:05.327Z,4.10
2017-08-18T13:23:33.752Z,3.73
2017-08-18T13:26:02.016Z,4.07
2017-08-18T13:28:30.488Z,4.10
2017-08-18T13:30:58.762Z,3.83
2017-08-18T13:33:27.024Z,3.80
2017-08-18T13:35:55.295Z,4.17
2017-08-18T13:38:23.577Z,3.77
2017-08-18T13:40:52.816Z,3.93
2017-08-18T13:43:21.097Z,3.47
2017-08-18T13:45:49.441Z,4.13
2017-08-18T13:48:17.791Z,4.13
2017-08-18T13:50:46.031Z,3.80
2017-08-18T13:53:14.402Z,3.90
2017-08-18T13:55:42.688Z,3.50
2017-08-18T13:58:11.679Z,3.53
2017-08-18T14:00:39.950Z,3.53
2017-08-18T14:03:08.197Z,3.97
2017-08-18T14:05:36.430Z,3.67
2017-08-18T14:08:04.770Z,3.63
2017-08-18T14:10:33.017Z,3.93
2017-08-18T14:13:01.268Z,3.93
2017-08-18T14:15:29.632Z,3.90
2017-08-18T14:17:57.856Z,3.80
2017-08-18T14:20:26.318Z,4.10
2017-08-18T14:22:54.725Z,3.70
2017-08-18T14:25:28.530Z,4.30
2017-08-18T14:27:56.858Z,4.03
2017-08-18T14:30:25.103Z,3.80
2017-08-18T14:32:53.339Z,4.03
2017-08-18T14:35:22.591Z,4.10
2017-08-18T14:37:50.848Z,3.30
2017-08-18T14:40:19.294Z,3.90
2017-08-18T14:42:47.796Z,3.93
2017-08-18T14:45:16.043Z,3.70
2017-08-18T14:47:44.374Z,4.00
2017-08-18T14:50:12.629Z,4.40
2017-08-18T14:52:40.895Z,4.37
2017-08-18T14:55:09.220Z,4.00
2017-08-18T14:57:37.469Z,4.23
2017-08-18T15:00:05.756Z,4.73
2017-08-18T15:02:34.137Z,4.00
2017-08-18T15:05:03.172Z,4.07
2017-08-18T15:07:31.416Z,4.60
2017-08-18T15:09:59.683Z,4.60
2017-08-18T15:12:28.137Z,5.00
2017-08-18T15:14:56.514Z,4.50
2017-08-18T15:17:24.768Z,4.80
2017-08-18T15:19:53.046Z,5.33
2017-08-18T15:22:21.374Z,5.07
2017-08-18T15:24:49.692Z,4.53
2017-08-18T15:27:17.956Z,4.57
2017-08-18T15:29:46.250Z,4.77
2017-08-18T15:32:14.521Z,4.70
2017-08-18T15:34:42.849Z,4.73
2017-08-18T15:37:11.213Z,4.33
2017-08-18T15:39:39.461Z,4.70
2017-08-18T15:42:07.914Z,5.17
2017-08-18T15:44:36.244Z,4.80
2017-08-18T15:47:04.510Z,4.73
2017-08-18T15:49:32.890Z,5.10
2017-08-18T15:52:01.173Z,5.30
2017-08-18T15:54:29.890Z,5.50
2017-08-18T15:56:58.124Z,4.67
2017-08-18T15:59:26.504Z,4.80
2017-08-18T16:01:54.743Z,5.10
2017-08-18T16:04:22.979Z,4.50
2017-08-18T16:06:51.287Z,5.10
2017-08-18T16:09:19.561Z,5.20
2017-08-18T16:11:48.036Z,4.50
2017-08-18T16:14:16.271Z,4.70
2017-08-18T16:16:44.552Z,15.57
2017-08-18T16:19:12.895Z,4.77
2017-08-18T16:21:41.145Z,4.87
2017-08-18T16:24:10.352Z,4.40
2017-08-18T16:26:38.645Z,4.70
2017-08-18T16:29:06.965Z,4.90
2017-08-18T16:31:35.497Z,4.70
2017-08-18T16:34:04.025Z,4.50
2017-08-18T16:36:32.359Z,4.53
2017-08-18T16:39:00.673Z,4.87
2017-08-18T16:41:29.389Z,4.77
2017-08-18T16:43:57.688Z,5.27
2017-08-18T16:46:25.931Z,4.37
2017-08-18T16:48:54.258Z,4.97
2017-08-18T16:51:23.413Z,7.83
2017-08-18T16:53:51.799Z,9.30
2017-08-18T16:56:20.306Z,4.57
2017-08-18T16:58:48.569Z,4.30
2017-08-18T17:01:16.953Z,4.70
2017-08-18T17:03:45.234Z,4.90
2017-08-18T17:06:13.468Z,3.63
2017-08-18T17:08:41.725Z,4.77
2017-08-18T17:11:10.141Z,4.00
2017-08-18T17:13:38.534Z,5.10
2017-08-18T17:16:06.788Z,4.50
2017-08-18T17:18:35.452Z,4.20
2017-08-18T17:21:03.735Z,4.60
2017-08-18T17:23:31.989Z,5.13
2017-08-18T17:26:00.264Z,5.33
2017-08-18T17:28:28.915Z,4.97
2017-08-18T17:30:57.973Z,4.30
2017-08-18T17:33:26.261Z,3.77
2017-08-18T17:35:54.977Z,4.93
2017-08-18T17:38:23.600Z,4.10
2017-08-18T17:40:52.112Z,4.67
2017-08-18T17:43:20.344Z,4.57
2017-08-18T17:45:48.583Z,4.67
2017-08-18T17:48:16.862Z,4.57
2017-08-18T17:50:45.123Z,4.90
2017-08-18T17:53:13.355Z,4.93
2017-08-18T17:55:41.636Z,5.07
2017-08-18T17:58:09.874Z,5.73
2017-08-18T18:00:38.363Z,5.30
2017-08-18T18:03:06.626Z,4.80
2017-08-18T18:05:35.128Z,5.87
2017-08-18T18:08:03.611Z,6.87
2017-08-18T18:10:31.842Z,7.27
2017-08-18T18:13:00.120Z,6.70
2017-08-18T18:15:28.424Z,6.80
2017-08-18T18:17:56.768Z,6.27
2017-08-18T18:20:25.237Z,6.60
2017-08-18T18:22:53.520Z,8.10
2017-08-18T18:25:21.780Z,6.90
2017-08-18T18:27:50.025Z,6.50
2017-08-18T18:30:18.316Z,6.53
2017-08-18T18:32:46.540Z,4.70
2017-08-18T18:35:14.870Z,7.50
2017-08-18T18:37:43.136Z,8.10
2017-08-18T18:40:11.367Z,8.13
2017-08-18T18:42:39.612Z,7.93
2017-08-18T18:45:07.888Z,8.13
2017-08-18T18:47:36.802Z,8.93
2017-08-18T18:50:05.344Z,9.70
2017-08-18T18:52:33.678Z,11.30
2017-08-18T18:55:01.971Z,9.93
2017-08-18T18:57:30.480Z,10.60
2017-08-18T18:59:58.750Z,9.03
2017-08-18T19:02:27.016Z,8.00
2017-08-18T19:04:55.281Z,7.17
2017-08-18T19:07:23.552Z,5.63
2017-08-18T19:09:51.816Z,7.90
2017-08-18T19:12:20.125Z,6.73
2017-08-18T19:14:48.401Z,6.80
2017-08-18T19:17:16.890Z,9.87
2017-08-18T19:19:45.151Z,8.00
2017-08-18T19:22:13.437Z,6.80
2017-08-18T19:24:41.687Z,6.10
2017-08-18T19:27:09.964Z,5.30
2017-08-18T19:29:38.472Z,6.10
2017-08-18T19:32:06.741Z,7.50
2017-08-18T19:34:35.049Z,6.57
2017-08-18T19:37:04.365Z,7.50
2017-08-18T19:39:32.789Z,15.10
2017-08-18T19:42:01.057Z,7.20
2017-08-18T19:44:29.358Z,7.20
2017-08-18T19:46:58.277Z,6.83
2017-08-18T19:49:26.757Z,7.83
2017-08-18T19:51:55.296Z,9.13
2017-08-18T19:54:25.059Z,7.87
2017-08-18T19:56:53.604Z,5.57
2017-08-18T19:59:21.916Z,6.23
2017-08-18T20:01:50.191Z,5.93
2017-08-18T20:04:18.461Z,6.10
2017-08-18T20:06:46.724Z,5.23
2017-08-18T20:09:15.020Z,5.97
2017-08-18T20:11:43.271Z,6.47
2017-08-18T20:14:11.658Z,5.03
2017-08-18T20:16:39.938Z,4.47
2017-08-18T20:19:08.177Z,5.30
2017-08-18T20:21:36.840Z,6.50
2017-08-18T20:24:05.576Z,4.70
2017-08-18T20:26:33.797Z,4.80
2017-08-18T20:29:02.214Z,6.60
2017-08-18T20:31:30.456Z,7.53
2017-08-18T20:33:58.739Z,6.50
2017-08-18T20:36:27.225Z,5.00
2017-08-18T20:38:55.469Z,5.00
2017-08-18T20:41:23.714Z,4.20
2017-08-18T20:43:52.009Z,4.60
2017-08-18T20:46:20.249Z,4.37
2017-08-18T20:48:48.526Z,3.90
2017-08-18T20:51:16.904Z,3.77
2017-08-18T20:53:45.175Z,3.40
2017-08-18T20:56:13.426Z,4.17
2017-08-18T20:58:42.077Z,3.30
2017-08-18T21:01:10.324Z,3.67
2017-08-18T21:03:38.552Z,3.87
2017-08-18T21:06:06.865Z,3.83
2017-08-18T21:08:35.116Z,3.97
2017-08-18T21:11:03.361Z,4.13
2017-08-18T21:13:31.811Z,4.47
2017-08-18T21:16:00.094Z,4.07
2017-08-18T21:18:28.327Z,6.40
2017-08-18T21:20:57.004Z,6.40
2017-08-18T21:23:25.256Z,4.77
2017-08-18T21:25:53.519Z,3.80
2017-08-18T21:28:25.453Z,3.37
2017-08-18T21:30:53.739Z,3.97
2017-08-18T21:33:22.007Z,4.30
2017-08-18T21:35:50.352Z,3.80
2017-08-18T21:38:18.669Z,3.83
2017-08-18T21:40:46.934Z,4.00
2017-08-18T21:43:15.343Z,4.60
2017-08-18T21:45:43.586Z,3.83
2017-08-18T21:48:11.850Z,3.87
2017-08-18T21:50:40.789Z,3.90
2017-08-18T21:53:09.029Z,3.40
2017-08-18T21:55:37.303Z,3.30
2017-08-18T21:58:05.785Z,2.97
2017-08-18T22:00:34.027Z,3.07
2017-08-18T22:03:02.312Z,2.60
2017-08-18T22:05:30.929Z,2.80
2017-08-18T22:07:59.499Z,2.67
2017-08-18T22:10:27.991Z,2.40
2017-08-18T22:12:57.148Z,2.27
2017-08-18T22:15:25.935Z,2.03
2017-08-18T22:17:54.688Z,1.93
2017-08-18T22:20:23.550Z,1.87
2017-08-18T22:22:52.296Z,2.10
2017-08-18T22:25:21.051Z,1.93
2017-08-18T22:27:50.129Z,2.33
2017-08-18T22:30:19.089Z,2.07
2017-08-18T22:32:47.822Z,2.30
2017-08-18T22:35:16.678Z,2.40
2017-08-18T22:37:45.522Z,3.43
2017-08-18T22:40:14.371Z,2.73
2017-08-18T22:42:43.053Z,3.17
2017-08-18T22:45:11.888Z,3.20
2017-08-18T22:47:40.640Z,3.10
2017-08-18T22:50:09.495Z,2.70
2017-08-18T22:52:38.392Z,3.37
2017-08-18T22:55:07.246Z,2.90
2017-08-18T22:57:36.185Z,3.10
2017-08-18T23:00:04.886Z,3.20
2017-08-18T23:02:33.540Z,2.90
2017-08-18T23:05:02.490Z,3.00
2017-08-18T23:07:31.487Z,3.50
2017-08-18T23:10:00.416Z,3.30
2017-08-18T23:12:29.237Z,3.20
2017-08-18T23:14:58.480Z,3.80
2017-08-18T23:17:27.207Z,3.37
2017-08-18T23:19:55.852Z,3.60
2017-08-18T23:22:24.670Z,3.50
2017-08-18T23:24:53.007Z,3.23
2017-08-18T23:27:22.128Z,2.90
2017-08-18T23:29:50.953Z,3.80
2017-08-18T23:32:19.585Z,2.97
2017-08-18T23:34:48.307Z,4.90
2017-08-18T23:37:16.921Z,4.00
2017-08-18T23:39:45.457Z,3.87
2017-08-18T23:42:14.454Z,3.87
2017-08-18T23:44:43.614Z,3.50
2017-08-18T23:47:12.889Z,3.70
2017-08-18T23:49:42.236Z,3.87
2017-08-18T23:52:10.850Z,3.73
2017-08-18T23:54:39.732Z,3.63
2017-08-18T23:57:08.426Z,4.60
2017-08-18T23:59:37.207Z,3.80
